createdAt,value
2019-04-10T00:01:37.644Z,98570.81
2019-04-10T00:04:08.300Z,98569.91
2019-04-10T00:06:39.504Z,98573.14
2019-04-10T00:09:10.666Z,98580.81
2019-04-10T00:11:43.189Z,98578.72
2019-04-10T00:14:15.069Z,98574.45
2019-04-10T00:16:47.498Z,98575.56
2019-04-10T00:19:18.329Z,98562.23
2019-04-10T00:21:49.416Z,98572.88
2019-04-10T00:24:20.446Z,98567.03
2019-04-10T00:26:52.271Z,98565.17
2019-04-10T00:29:24.714Z,98571.06
2019-04-10T00:31:56.400Z,98566.52
2019-04-10T00:34:27.538Z,98562.80
2019-04-10T00:36:59.635Z,98563.23
2019-04-10T00:39:31.379Z,98563.23
2019-04-10T00:42:03.004Z,98560.11
2019-04-10T00:44:33.922Z,98562.02
2019-04-10T00:47:04.705Z,98571.66
2019-04-10T00:49:35.843Z,98571.25
2019-04-10T00:52:06.475Z,98566.55
2019-04-10T00:54:37.306Z,98565.88
2019-04-10T00:57:08.153Z,98562.59
2019-04-10T00:59:39.837Z,98566.03
2019-04-10T01:02:10.745Z,98562.52
2019-04-10T01:04:42.497Z,98563.34
2019-04-10T01:07:13.028Z,98562.98
2019-04-10T01:09:43.819Z,98562.28
2019-04-10T01:12:14.545Z,98559.31
2019-04-10T01:14:45.683Z,98557.03
2019-04-10T01:17:16.405Z,98559.44
2019-04-10T01:19:48.080Z,98552.00
2019-04-10T01:22:19.078Z,98558.92
2019-04-10T01:24:50.201Z,98558.09
2019-04-10T01:27:21.213Z,98558.69
2019-04-10T01:29:51.886Z,98556.47
2019-04-10T01:32:23.721Z,98558.13
2019-04-10T01:34:54.391Z,98550.39
2019-04-10T01:37:26.940Z,98549.00
2019-04-10T01:39:58.982Z,98560.55
2019-04-10T01:42:30.395Z,98551.13
2019-04-10T01:45:01.067Z,98547.09
2019-04-10T01:47:33.597Z,98546.45
2019-04-10T01:50:04.531Z,98537.69
2019-04-10T01:52:35.474Z,98543.81
2019-04-10T01:55:19.167Z,98534.97
2019-04-10T01:57:39.429Z,98540.97
2019-04-10T02:00:13.159Z,98547.55
2019-04-10T02:02:47.771Z,98546.58
2019-04-10T02:05:18.772Z,98551.13
2019-04-10T02:08:01.156Z,98547.45
2019-04-10T02:10:22.232Z,98550.81
2019-04-10T02:12:53.232Z,98553.98
2019-04-10T02:15:24.061Z,98551.25
2019-04-10T02:17:55.155Z,98550.94
2019-04-10T02:20:25.781Z,98553.05
2019-04-10T02:22:56.580Z,98548.34
2019-04-10T02:25:28.435Z,98551.40
2019-04-10T02:27:59.538Z,98545.62
2019-04-10T02:30:30.940Z,98546.80
2019-04-10T02:33:04.322Z,98550.97
2019-04-10T02:35:36.135Z,98543.73
2019-04-10T02:38:27.368Z,98546.50
2019-04-10T02:40:41.533Z,98543.73
2019-04-10T02:43:13.920Z,98539.49
2019-04-10T02:45:45.003Z,98543.31
2019-04-10T02:48:17.112Z,98545.64
2019-04-10T02:50:49.223Z,98547.45
2019-04-10T02:53:21.733Z,98550.93
2019-04-10T02:55:53.647Z,98551.16
2019-04-10T02:58:24.811Z,98548.33
2019-04-10T03:00:56.338Z,98544.27
2019-04-10T03:03:27.654Z,98541.97
2019-04-10T03:05:58.761Z,98538.71
2019-04-10T03:08:46.813Z,98538.06
2019-04-10T03:11:05.076Z,98539.83
2019-04-10T03:13:35.864Z,98534.02
2019-04-10T03:16:07.477Z,98532.08
2019-04-10T03:18:39.093Z,98530.89
2019-04-10T03:21:11.016Z,98531.02
2019-04-10T03:23:42.646Z,98530.66
2019-04-10T03:26:13.422Z,98535.52
2019-04-10T03:28:45.182Z,98526.26
2019-04-10T03:31:16.043Z,98535.06
2019-04-10T03:33:58.759Z,98532.33
2019-04-10T03:36:37.994Z,98530.78
2019-04-10T03:39:10.698Z,98532.78
2019-04-10T03:41:42.157Z,98534.31
2019-04-10T03:44:14.542Z,98528.17
2019-04-10T03:46:45.314Z,98529.63
2019-04-10T03:49:16.204Z,98533.60
2019-04-10T03:51:47.144Z,98531.71
2019-04-10T03:54:18.704Z,98525.56
2019-04-10T03:56:50.014Z,98525.02
2019-04-10T03:59:20.875Z,98528.54
2019-04-10T04:01:51.561Z,98524.61
2019-04-10T04:04:22.291Z,98530.73
2019-04-10T04:06:54.010Z,98526.16
2019-04-10T04:09:24.776Z,98529.05
2019-04-10T04:11:55.854Z,98524.36
2019-04-10T04:14:26.594Z,98526.47
2019-04-10T04:16:57.800Z,98530.27
2019-04-10T04:19:28.752Z,98522.52
2019-04-10T04:22:00.538Z,98523.24
2019-04-10T04:24:31.604Z,98525.00
2019-04-10T04:27:02.763Z,98525.47
2019-04-10T04:29:34.505Z,98522.03
2019-04-10T04:32:05.514Z,98521.56
2019-04-10T04:34:37.342Z,98523.48
2019-04-10T04:37:10.243Z,98522.50
2019-04-10T04:39:40.898Z,98527.41
2019-04-10T04:42:11.525Z,98529.57
2019-04-10T04:44:43.395Z,98526.57
2019-04-10T04:47:14.230Z,98535.02
2019-04-10T04:49:45.114Z,98527.41
2019-04-10T04:52:16.303Z,98533.14
2019-04-10T04:54:47.722Z,98532.55
2019-04-10T04:57:18.437Z,98534.12
2019-04-10T04:59:49.126Z,98542.19
2019-04-10T05:02:20.583Z,98541.52
2019-04-10T05:04:51.520Z,98542.67
2019-04-10T05:07:22.516Z,98545.47
2019-04-10T05:09:53.461Z,98542.63
2019-04-10T05:12:24.124Z,98544.04
2019-04-10T05:14:55.779Z,98548.34
2019-04-10T05:17:27.300Z,98552.37
2019-04-10T05:19:58.696Z,98553.84
2019-04-10T05:22:29.414Z,98551.84
2019-04-10T05:25:00.668Z,98547.71
2019-04-10T05:27:31.501Z,98548.62
2019-04-10T05:30:02.398Z,98542.19
2019-04-10T05:32:35.332Z,98552.70
2019-04-10T05:35:08.494Z,98552.46
2019-04-10T05:37:40.074Z,98552.70
2019-04-10T05:40:11.837Z,98556.06
2019-04-10T05:42:42.700Z,98559.63
2019-04-10T05:45:14.840Z,98560.66
2019-04-10T05:47:46.562Z,98561.56
2019-04-10T05:50:17.501Z,98564.61
2019-04-10T05:52:48.191Z,98563.94
2019-04-10T05:55:19.095Z,98560.78
2019-04-10T05:57:49.860Z,98566.75
2019-04-10T06:00:22.901Z,98572.48
2019-04-10T06:02:54.238Z,98571.97
2019-04-10T06:05:24.997Z,98566.05
2019-04-10T06:07:55.797Z,98571.38
2019-04-10T06:10:26.773Z,98573.98
2019-04-10T06:12:58.561Z,98570.06
2019-04-10T06:15:29.250Z,98574.38
2019-04-10T06:18:00.014Z,98572.28
2019-04-10T06:20:31.392Z,98574.06
2019-04-10T06:23:03.243Z,98568.53
2019-04-10T06:25:36.684Z,98567.00
2019-04-10T06:28:07.337Z,98570.64
2019-04-10T06:30:38.170Z,98574.88
2019-04-10T06:33:09.729Z,98573.61
2019-04-10T06:35:40.480Z,98576.66
2019-04-10T06:38:11.266Z,98573.38
2019-04-10T06:40:42.482Z,98578.47
2019-04-10T06:43:13.246Z,98576.45
2019-04-10T06:45:44.446Z,98580.84
2019-04-10T06:48:15.256Z,98573.61
2019-04-10T06:50:46.133Z,98574.48
2019-04-10T06:53:18.534Z,98572.14
2019-04-10T06:55:49.478Z,98574.31
2019-04-10T06:58:21.364Z,98569.05
2019-04-10T07:00:53.837Z,98568.54
2019-04-10T07:03:28.928Z,98566.28
2019-04-10T07:06:06.344Z,98565.33
2019-04-10T07:08:29.963Z,98565.12
2019-04-10T07:11:07.799Z,98574.06
2019-04-10T07:13:36.833Z,98575.52
2019-04-10T07:16:06.284Z,98577.67
2019-04-10T07:18:38.643Z,98577.74
2019-04-10T07:21:10.593Z,98580.55
2019-04-10T07:23:42.733Z,98588.94
2019-04-10T07:26:18.490Z,98592.23
2019-04-10T07:28:47.556Z,98591.95
2019-04-10T07:31:19.367Z,98593.22
2019-04-10T07:33:51.925Z,98601.38
2019-04-10T07:36:23.021Z,98599.67
2019-04-10T07:38:56.107Z,98607.45
2019-04-10T07:41:26.540Z,98611.49
2019-04-10T07:43:58.316Z,98604.48
2019-04-10T07:46:31.069Z,98605.05
2019-04-10T07:49:02.944Z,98604.50
2019-04-10T07:51:34.075Z,98602.44
2019-04-10T07:54:06.049Z,98606.55
2019-04-10T07:56:37.510Z,98602.56
2019-04-10T07:59:08.802Z,98603.81
2019-04-10T08:01:40.676Z,98600.81
2019-04-10T08:04:12.512Z,98601.45
2019-04-10T08:06:44.434Z,98600.70
2019-04-10T08:09:15.366Z,98600.30
2019-04-10T08:11:46.876Z,98608.84
2019-04-10T08:14:17.689Z,98611.30
2019-04-10T08:16:49.738Z,98613.55
2019-04-10T08:19:20.797Z,98610.45
2019-04-10T08:21:52.705Z,98615.59
2019-04-10T08:24:23.763Z,98617.29
2019-04-10T08:26:54.888Z,98618.18
2019-04-10T08:29:26.024Z,98619.69
2019-04-10T08:31:56.829Z,98621.46
2019-04-10T08:34:28.118Z,98621.39
2019-04-10T08:36:59.686Z,98620.31
2019-04-10T08:39:37.751Z,98623.80
2019-04-10T08:42:03.179Z,98623.72
2019-04-10T08:44:34.027Z,98625.89
2019-04-10T08:47:04.742Z,98628.88
2019-04-10T08:49:35.450Z,98630.44
2019-04-10T08:52:06.512Z,98633.11
2019-04-10T08:54:38.400Z,98636.19
2019-04-10T08:57:09.622Z,98635.84
2019-04-10T08:59:44.037Z,98631.86
2019-04-10T09:02:15.911Z,98632.56
2019-04-10T09:04:46.877Z,98633.52
2019-04-10T09:07:17.651Z,98636.50
2019-04-10T09:09:48.550Z,98638.84
2019-04-10T09:12:19.827Z,98630.59
2019-04-10T09:14:51.680Z,98632.52
2019-04-10T09:17:24.987Z,98630.81
2019-04-10T09:19:55.782Z,98629.66
2019-04-10T09:22:26.786Z,98634.92
2019-04-10T09:24:58.447Z,98637.96
2019-04-10T09:27:29.127Z,98641.13
2019-04-10T09:30:00.424Z,98641.38
2019-04-10T09:32:32.614Z,98636.34
2019-04-10T09:35:04.441Z,98643.35
2019-04-10T09:37:35.282Z,98640.11
2019-04-10T09:40:08.005Z,98642.69
2019-04-10T09:42:39.607Z,98640.70
2019-04-10T09:45:11.532Z,98642.61
2019-04-10T09:47:43.767Z,98636.06
2019-04-10T09:50:15.280Z,98645.06
2019-04-10T09:52:50.432Z,98641.80
2019-04-10T09:55:22.234Z,98640.47
2019-04-10T09:57:58.324Z,98645.25
2019-04-10T10:00:32.503Z,98649.61
2019-04-10T10:03:03.552Z,98649.48
2019-04-10T10:05:34.906Z,98647.01
2019-04-10T10:08:07.419Z,98650.71
2019-04-10T10:10:39.556Z,98643.11
2019-04-10T10:13:10.773Z,98644.49
2019-04-10T10:15:41.658Z,98641.55
2019-04-10T10:18:12.998Z,98640.09
2019-04-10T10:20:44.054Z,98640.78
2019-04-10T10:23:15.811Z,98642.98
2019-04-10T10:25:47.784Z,98641.12
2019-04-10T10:28:18.804Z,98643.23
2019-04-10T10:30:49.549Z,98643.05
2019-04-10T10:33:21.556Z,98646.36
2019-04-10T10:35:53.412Z,98641.61
2019-04-10T10:38:25.165Z,98652.98
2019-04-10T10:40:57.049Z,98653.81
2019-04-10T10:43:28.798Z,98655.28
2019-04-10T10:46:00.872Z,98658.31
2019-04-10T10:48:31.780Z,98656.04
2019-04-10T10:51:02.502Z,98656.53
2019-04-10T10:53:34.544Z,98659.96
2019-04-10T10:56:06.373Z,98664.25
2019-04-10T10:58:38.171Z,98661.38
2019-04-10T11:01:08.961Z,98655.53
2019-04-10T11:03:40.509Z,98655.53
2019-04-10T11:06:11.401Z,98653.89
2019-04-10T11:08:42.236Z,98656.69
2019-04-10T11:11:13.123Z,98658.20
2019-04-10T11:13:43.893Z,98661.14
2019-04-10T11:16:14.594Z,98668.81
2019-04-10T11:18:46.860Z,98662.51
2019-04-10T11:21:18.247Z,98658.75
2019-04-10T11:23:49.507Z,98656.95
2019-04-10T11:26:23.938Z,98663.03
2019-04-10T11:28:53.075Z,98657.77
2019-04-10T11:31:25.092Z,98661.68
2019-04-10T11:33:56.890Z,98663.80
2019-04-10T11:36:29.890Z,98665.48
2019-04-10T11:39:12.014Z,98664.91
2019-04-10T11:41:34.830Z,98667.25
2019-04-10T11:44:08.128Z,98660.93
2019-04-10T11:46:41.454Z,98663.69
2019-04-10T11:49:13.957Z,98658.45
2019-04-10T11:51:45.289Z,98664.73
2019-04-10T11:54:18.025Z,98658.58
2019-04-10T11:56:50.951Z,98667.02
2019-04-10T12:04:29.554Z,98676.38
2019-04-10T12:07:01.393Z,98675.42
2019-04-10T12:10:49.415Z,98675.86
2019-04-10T12:12:04.025Z,98668.17
2019-04-10T12:14:35.431Z,98683.34
2019-04-10T12:17:06.144Z,98679.25
2019-04-10T12:19:36.924Z,98679.35
2019-04-10T12:22:07.702Z,98674.79
2019-04-10T12:24:38.457Z,98681.01
2019-04-10T12:27:09.386Z,98691.37
2019-04-10T12:29:40.515Z,98692.13
2019-04-10T12:32:12.233Z,98690.20
2019-04-10T12:34:44.462Z,98689.02
2019-04-10T12:37:15.559Z,98692.89
2019-04-10T12:39:47.481Z,98692.23
2019-04-10T12:42:19.763Z,98691.48
2019-04-10T12:44:51.402Z,98701.66
2019-04-10T12:47:22.380Z,98701.15
2019-04-10T12:49:54.013Z,98697.77
2019-04-10T12:52:24.782Z,98699.57
2019-04-10T12:54:55.649Z,98693.65
2019-04-10T12:57:26.717Z,98691.38
2019-04-10T13:00:01.492Z,98695.45
2019-04-10T13:02:30.334Z,98694.17
2019-04-10T13:05:01.161Z,98697.52
2019-04-10T13:07:33.866Z,98702.19
2019-04-10T13:10:05.005Z,98698.56
2019-04-10T13:12:35.799Z,98697.41
2019-04-10T13:15:08.566Z,98693.38
2019-04-10T13:17:40.698Z,98703.53
2019-04-10T13:20:14.178Z,98699.88
2019-04-10T13:22:45.057Z,98705.30
2019-04-10T13:25:16.358Z,98704.19
2019-04-10T13:27:47.381Z,98703.33
2019-04-10T13:30:18.751Z,98707.30
2019-04-10T13:32:50.080Z,98701.08
2019-04-10T13:35:21.937Z,98701.84
2019-04-10T13:37:52.920Z,98698.14
2019-04-10T13:40:23.671Z,98704.50
2019-04-10T13:42:54.367Z,98701.05
2019-04-10T13:45:25.133Z,98698.00
2019-04-10T13:47:56.677Z,98696.48
2019-04-10T13:50:27.526Z,98694.72
2019-04-10T13:52:59.563Z,98692.02
2019-04-10T13:55:30.589Z,98690.16
2019-04-10T13:58:01.407Z,98692.55
2019-04-10T14:00:39.910Z,98694.03
2019-04-10T14:03:10.226Z,98691.55
2019-04-10T14:05:41.318Z,98691.83
2019-04-10T14:08:12.604Z,98691.92
2019-04-10T14:10:44.511Z,98690.20
2019-04-10T14:13:15.731Z,98692.82
2019-04-10T14:15:48.438Z,98695.11
2019-04-10T14:18:19.367Z,98693.51
2019-04-10T14:20:51.330Z,98689.58
2019-04-10T14:23:26.614Z,98694.79
2019-04-10T14:26:20.312Z,98700.84
2019-04-10T14:28:51.788Z,98694.27
2019-04-10T14:31:26.650Z,98700.73
2019-04-10T14:33:58.414Z,98699.39
2019-04-10T14:36:29.819Z,98700.91
2019-04-10T14:39:10.502Z,98705.61
2019-04-10T14:41:35.994Z,98701.60
2019-04-10T14:44:08.278Z,98701.67
2019-04-10T14:46:40.048Z,98707.92
2019-04-10T14:49:11.181Z,98710.17
2019-04-10T14:51:42.208Z,98709.23
2019-04-10T14:54:13.621Z,98716.73
2019-04-10T14:56:44.504Z,98711.28
2019-04-10T14:59:15.802Z,98711.10
2019-04-10T15:01:46.698Z,98710.52
2019-04-10T15:04:17.584Z,98708.23
2019-04-10T15:06:48.487Z,98713.45
2019-04-10T15:09:25.961Z,98713.04
2019-04-10T15:11:55.337Z,98717.19
2019-04-10T15:14:26.156Z,98724.23
2019-04-10T15:17:02.318Z,98723.16
2019-04-10T15:19:29.367Z,98720.87
2019-04-10T15:22:01.165Z,98721.53
2019-04-10T15:24:31.802Z,98722.99
2019-04-10T15:27:02.783Z,98726.03
2019-04-10T15:29:34.720Z,98724.05
2019-04-10T15:32:06.411Z,98732.66
2019-04-10T15:34:37.502Z,98730.33
2019-04-10T15:37:08.882Z,98733.65
2019-04-10T15:39:41.462Z,98739.52
2019-04-10T15:42:12.365Z,98737.98
2019-04-10T15:44:43.291Z,98737.88
2019-04-10T15:47:19.613Z,98742.14
2019-04-10T15:49:46.645Z,98745.31
2019-04-10T15:52:17.794Z,98737.39
2019-04-10T15:54:48.579Z,98737.56
2019-04-10T15:57:19.531Z,98734.99
2019-04-10T15:59:50.414Z,98735.86
2019-04-10T16:02:21.714Z,98737.22
2019-04-10T16:04:53.071Z,98733.77
2019-04-10T16:07:24.473Z,98731.30
2019-04-10T16:10:02.391Z,98732.22
2019-04-10T16:12:33.553Z,98731.55
2019-04-10T16:15:04.867Z,98740.06
2019-04-10T16:17:44.068Z,98742.24
2019-04-10T16:20:31.957Z,98741.60
2019-04-10T16:23:15.004Z,98745.64
2019-04-10T16:25:50.194Z,98744.58
2019-04-10T16:28:21.069Z,98744.63
2019-04-10T16:30:51.958Z,98738.77
2019-04-10T16:33:23.247Z,98744.81
2019-04-10T16:35:54.729Z,98751.72
2019-04-10T16:38:26.718Z,98749.26
2019-04-10T16:40:58.393Z,98761.05
2019-04-10T16:43:30.623Z,98762.69
2019-04-10T16:46:01.392Z,98762.28
2019-04-10T16:48:33.399Z,98762.25
2019-04-10T16:51:04.319Z,98771.11
2019-04-10T16:53:36.312Z,98770.39
2019-04-10T16:56:09.411Z,98774.47
2019-04-10T16:58:41.598Z,98775.59
2019-04-10T17:01:13.130Z,98777.30
2019-04-10T17:03:44.246Z,98778.15
2019-04-10T17:06:15.259Z,98782.55
2019-04-10T17:08:46.125Z,98782.16
2019-04-10T17:11:16.951Z,98779.58
2019-04-10T17:13:48.880Z,98780.77
2019-04-10T17:16:20.171Z,98782.70
2019-04-10T17:18:51.709Z,98787.19
2019-04-10T17:21:23.021Z,98788.27
2019-04-10T17:23:53.898Z,98792.20
2019-04-10T17:26:24.818Z,98785.87
2019-04-10T17:28:56.637Z,98785.45
2019-04-10T17:31:28.697Z,98788.41
2019-04-10T17:34:00.607Z,98796.86
2019-04-10T17:36:32.880Z,98792.52
2019-04-10T17:39:05.244Z,98794.02
2019-04-10T17:41:36.537Z,98800.16
2019-04-10T17:44:07.738Z,98796.03
2019-04-10T17:46:39.510Z,98802.40
2019-04-10T17:49:11.944Z,98797.23
2019-04-10T17:51:43.943Z,98804.78
2019-04-10T17:54:16.217Z,98805.53
2019-04-10T17:56:47.048Z,98810.09
2019-04-10T17:59:18.353Z,98809.58
2019-04-10T18:01:49.433Z,98814.98
2019-04-10T18:04:20.340Z,98818.63
2019-04-10T18:06:52.014Z,98814.26
2019-04-10T18:09:24.911Z,98815.23
2019-04-10T18:11:56.351Z,98819.59
2019-04-10T18:14:27.323Z,98823.91
2019-04-10T18:17:00.519Z,98825.36
2019-04-10T18:19:32.327Z,98828.85
2019-04-10T18:22:04.118Z,98834.33
2019-04-10T18:24:35.975Z,98826.98
2019-04-10T18:27:07.946Z,98834.61
2019-04-10T18:29:39.357Z,98838.27
2019-04-10T18:32:10.223Z,98839.76
2019-04-10T18:34:41.103Z,98841.34
2019-04-10T18:37:15.789Z,98847.69
2019-04-10T18:39:44.683Z,98853.53
2019-04-10T18:42:15.292Z,98857.34
2019-04-10T18:44:46.940Z,98859.43
2019-04-10T18:47:18.611Z,98862.95
2019-04-10T18:49:49.748Z,98856.66
2019-04-10T18:52:21.292Z,98869.30
2019-04-10T18:54:52.163Z,98867.13
2019-04-10T18:57:24.057Z,98874.00
2019-04-10T19:00:30.181Z,98871.25
2019-04-10T19:03:10.761Z,98881.70
2019-04-10T19:05:45.659Z,98890.28
2019-04-10T19:08:16.519Z,98885.36
2019-04-10T19:10:48.388Z,98881.92
2019-04-10T19:13:19.143Z,98888.64
2019-04-10T19:15:49.924Z,98890.64
2019-04-10T19:18:21.883Z,98890.22
2019-04-10T19:20:53.288Z,98897.00
2019-04-10T19:23:25.429Z,98895.13
2019-04-10T19:25:56.814Z,98901.86
2019-04-10T19:28:30.278Z,98899.12
2019-04-10T19:31:14.635Z,98900.73
2019-04-10T19:33:41.538Z,98901.92
2019-04-10T19:36:12.620Z,98904.17
2019-04-10T19:38:44.038Z,98906.58
2019-04-10T19:41:25.214Z,98906.72
2019-04-10T19:43:50.512Z,98908.34
2019-04-10T19:46:21.638Z,98914.46
2019-04-10T19:48:53.554Z,98920.67
2019-04-10T19:51:24.544Z,98919.17
2019-04-10T19:53:55.680Z,98922.09
2019-04-10T19:56:26.747Z,98927.30
2019-04-10T19:58:58.686Z,98923.08
2019-04-10T20:01:31.308Z,98928.45
2019-04-10T20:04:02.117Z,98936.66
2019-04-10T20:06:32.835Z,98937.75
2019-04-10T20:09:06.861Z,98934.07
2019-04-10T20:11:43.403Z,98938.27
2019-04-10T20:14:10.689Z,98939.56
2019-04-10T20:16:41.624Z,98934.61
2019-04-10T20:19:13.022Z,98929.70
2019-04-10T20:21:44.095Z,98936.11
2019-04-10T20:24:14.846Z,98939.95
2019-04-10T20:26:45.735Z,98938.76
2019-04-10T20:29:17.157Z,98945.36
2019-04-10T20:31:49.825Z,98945.09
2019-04-10T20:34:21.230Z,98944.72
2019-04-10T20:36:53.301Z,98937.09
2019-04-10T20:39:25.273Z,98942.07
2019-04-10T20:41:58.344Z,98942.41
2019-04-10T20:44:29.139Z,98945.97
2019-04-10T20:47:00.386Z,98948.59
2019-04-10T20:49:31.131Z,98944.88
2019-04-10T20:52:02.151Z,98948.26
2019-04-10T20:54:32.965Z,98954.53
2019-04-10T20:57:04.946Z,98958.72
2019-04-10T20:59:37.099Z,98959.64
2019-04-10T21:02:08.021Z,98959.32
2019-04-10T21:04:39.607Z,98959.92
2019-04-10T21:07:12.563Z,98959.19
2019-04-10T21:09:43.872Z,98956.45
2019-04-10T21:12:18.088Z,98958.30
2019-04-10T21:14:47.978Z,98956.63
2019-04-10T21:17:18.988Z,98952.31
2019-04-10T21:19:49.661Z,98952.87
2019-04-10T21:22:20.467Z,98951.57
2019-04-10T21:24:52.055Z,98953.20
2019-04-10T21:27:22.946Z,98948.05
2019-04-10T21:30:11.448Z,98953.20
2019-04-10T21:32:56.927Z,98948.34
2019-04-10T21:35:32.753Z,98944.08
2019-04-10T21:38:04.799Z,98943.41
2019-04-10T21:40:35.433Z,98944.30
2019-04-10T21:43:06.311Z,98947.08
2019-04-10T21:45:37.166Z,98949.55
2019-04-10T21:48:08.546Z,98949.16
2019-04-10T21:50:39.821Z,98954.55
2019-04-10T21:53:10.476Z,98951.16
2019-04-10T21:55:41.718Z,98956.16
2019-04-10T21:58:13.070Z,98952.45
2019-04-10T22:01:05.506Z,98960.65
2019-04-10T22:03:37.873Z,98960.14
2019-04-10T22:06:19.768Z,98958.70
2019-04-10T22:09:10.443Z,98960.55
2019-04-10T22:11:43.492Z,98962.95
2019-04-10T22:14:15.085Z,98961.52
2019-04-10T22:16:46.357Z,98964.95
2019-04-10T22:19:17.067Z,98962.58
2019-04-10T22:21:48.199Z,98964.03
2019-04-10T22:24:18.941Z,98964.28
2019-04-10T22:26:50.147Z,98962.58
2019-04-10T22:29:21.761Z,98967.22
2019-04-10T22:31:53.455Z,98971.77
2019-04-10T22:34:24.161Z,98976.78
2019-04-10T22:36:55.613Z,98971.56
2019-04-10T22:39:27.431Z,98972.23
2019-04-10T22:41:58.942Z,98974.98
2019-04-10T22:44:37.522Z,98976.62
2019-04-10T22:47:02.989Z,98970.55
2019-04-10T22:49:34.869Z,98972.37
2019-04-10T22:52:06.810Z,98970.52
2019-04-10T22:54:38.839Z,98977.05
2019-04-10T22:57:10.471Z,98979.92
2019-04-10T22:59:42.266Z,98976.09
2019-04-10T23:02:15.050Z,98978.71
2019-04-10T23:04:47.106Z,98978.94
2019-04-10T23:07:17.890Z,98980.31
2019-04-10T23:09:48.686Z,98979.30
2019-04-10T23:12:20.337Z,98981.22
2019-04-10T23:14:51.240Z,98981.44
2019-04-10T23:17:21.899Z,98977.13
2019-04-10T23:19:54.251Z,98974.14
2019-04-10T23:22:27.314Z,98976.06
2019-04-10T23:24:58.202Z,98973.34
2019-04-10T23:27:30.090Z,98979.61
2019-04-10T23:30:00.996Z,98979.77
2019-04-10T23:32:31.522Z,98984.03
2019-04-10T23:35:03.210Z,98984.64
2019-04-10T23:37:35.038Z,98983.03
2019-04-10T23:40:06.845Z,98989.11
2019-04-10T23:42:37.924Z,98985.19
2019-04-10T23:45:09.700Z,98989.20
2019-04-10T23:47:40.227Z,98990.15
2019-04-10T23:50:12.153Z,98990.72
2019-04-10T23:52:44.338Z,98985.70
2019-04-10T23:55:15.529Z,98990.45
2019-04-10T23:57:46.614Z,98989.94
